Time;durP1;ratioP1;P1;durP2;ratioP2;P2;SDS_P1;SDS_P2;PMS_P1;PMS_P2;Temp;Humidity;BMP_temperature;BMP_pressure;BME280_temperature;BME280_humidity;BME280_pressure;Samples;Min_cycle;Max_cycle;Signal;HPM_P1;HPM_P2
2023/02/03 07:01:51;;;;;;;;;;;;;;;;;;6023718;23;19920;-88
2023/02/03 07:04:17;;;;;;;;;;;;;;;;;;4976110;28;20411;-88
2023/02/03 07:06:42;;;;;;;;;;;;;;;;;;4977545;28;19922;-89
2023/02/03 07:09:08;;;;;;;;;;;;;;;;;;4976190;28;20417;-89
2023/02/03 07:11:33;;;;;;;;;;;;;;;;;;4976087;28;20432;-88
2023/02/03 07:13:59;;;;;;;;;;;;;;;;;;4976349;28;19957;-88
2023/02/03 11:22:48;;;;;;;;;;;;;;;;;;5209655;23;19922;-87
2023/02/03 11:25:25;;;;;;;;;;;;;;;;;;4960451;28;19918;-88
2023/02/03 11:27:51;;;;;;;;;;;;;;;;;;4957468;29;19976;-90
2023/02/03 11:30:24;;;;;;;;;;;;;;;;;;4958378;29;19966;-85
2023/02/03 11:32:51;;;;;;;;;;;;;;;;;;4957698;29;19921;-86
2023/02/03 11:35:25;;;;;;;;;;;;;;;;;;4957607;29;19922;-85
2023/02/03 11:38:00;;;;;;;;;;;;;;;;;;4958511;29;19915;-88
2023/02/03 11:40:27;;;;;;;;;;;;;;;;;;4956585;29;19915;-91
2023/02/03 11:42:56;;;;;;;;;;;;;;;;;;4956614;29;19918;-88
2023/02/03 11:45:47;;;;;;;;;;;;;;;;;;4956535;29;19918;-89
2023/02/03 11:48:13;;;;;;;;;;;;;;;;;;4954922;29;19918;-88
2023/02/03 11:50:56;;;;;;;;;;;;;;;;;;4957414;29;19965;-91
2023/02/03 11:53:39;;;;;;;;;;;;;;;;;;4957254;29;20396;-88
2023/02/03 11:56:07;;;;;;;;;;;;;;;;;;4955957;29;19925;-92
2023/02/03 11:58:34;;;;;;;;;;;;;;;;;;4956277;29;19918;-89
2023/02/03 12:00:59;;;;;;;;;;;;;;;;;;4957398;29;19918;-89
2023/02/03 12:03:30;;;;;;;;;;;;;;;;;;4957516;29;19938;-93
2023/02/03 12:05:56;;;;;;;;;;;;;;;;;;4958694;29;19915;-92
2023/02/03 12:08:42;;;;;;;;;;;;;;;;;;4958460;29;19922;-90
2023/02/03 12:11:19;;;;;;;;;;;;;;;;;;4951485;29;19921;-94
2023/02/03 12:13:57;;;;;;;;;;;;;;;;;;4956753;29;19987;-90
2023/02/03 12:16:22;;;;;;;;;;;;;;;;;;4957083;29;20014;-86
2023/02/03 12:19:06;;;;;;;;;;;;;;;;;;4955653;29;20369;-84
2023/02/03 12:21:34;;;;;;;;;;;;;;;;;;4956881;28;19924;-85
2023/02/03 12:24:07;;;;;;;;;;;;;;;;;;4956892;29;19918;-89
2023/02/03 12:27:02;;;;;;;;;;;;;;;;;;4955462;29;20361;-89
2023/02/03 12:29:37;;;;;;;;;;;;;;;;;;4947347;28;19914;-89
2023/02/03 12:32:11;;;;;;;;;;;;;;;;;;4955843;29;19914;-85
2023/02/03 12:34:47;;;;;;;;;;;;;;;;;;4957194;29;19923;-89
2023/02/03 12:37:35;;;;;;;;;;;;;;;;;;4955714;29;19914;-89
2023/02/03 12:40:03;;;;;;;;;;;;;;;;;;4955312;29;20339;-92
2023/02/03 12:42:44;;;;;;;;;;;;;;;;;;4956696;29;19921;-90
2023/02/03 12:45:12;;;;;;;;;;;;;;;;;;4955479;29;19914;-89
2023/02/03 12:47:46;;;;;;;;;;;;;;;;;;4955421;29;19915;-89
2023/02/03 12:50:14;;;;;;;;;;;;;;;;;;4955781;29;19918;-92
2023/02/03 18:35:57;;;;;;;;;;;;;;;;;;4983223;28;19950;-93
2023/02/03 18:38:25;;;;;;;;;;;;;;;;;;4978042;28;20431;-93
2023/02/03 18:40:51;;;;;;;;;;;;;;;;;;4978060;28;19921;-93
2023/02/03 18:43:16;;;;;;;;;;;;;;;;;;4977641;28;19918;-94
2023/02/03 18:45:41;;;;;;;;;;;;;;;;;;4978069;28;19917;-92
2023/02/03 18:48:07;;;;;;;;;;;;;;;;;;4977549;28;19914;-92
2023/02/03 18:50:32;;;;;;;;;;;;;;;;;;4977074;28;19946;-90
2023/02/03 18:52:58;;;;;;;;;;;;;;;;;;4976963;28;19921;-91
2023/02/03 18:55:23;;;;;;;;;;;;;;;;;;4977426;28;19914;-89
2023/02/03 18:57:49;;;;;;;;;;;;;;;;;;4978986;28;19933;-91
2023/02/03 19:00:14;;;;;;;;;;;;;;;;;;4977038;28;19961;-89
2023/02/03 19:02:40;;;;;;;;;;;;;;;;;;4976692;28;19968;-87
2023/02/03 19:05:07;;;;;;;;;;;;;;;;;;4978148;28;19945;-86
2023/02/03 19:07:32;;;;;;;;;;;;;;;;;;4976797;28;20253;-88
2023/02/03 19:09:58;;;;;;;;;;;;;;;;;;4977642;28;19961;-88
2023/02/03 19:12:25;;;;;;;;;;;;;;;;;;4978297;28;20281;-89
2023/02/03 19:14:50;;;;;;;;;;;;;;;;;;4976834;28;19960;-90
2023/02/03 19:17:16;;;;;;;;;;;;;;;;;;4978122;28;19917;-93
2023/02/03 19:19:41;;;;;;;;;;;;;;;;;;4978357;28;19914;-89
2023/02/03 19:22:07;;;;;;;;;;;;;;;;;;4978156;28;19961;-94
2023/02/03 19:24:32;;;;;;;;;;;;;;;;;;4977920;28;19914;-93
2023/02/03 19:27:05;;;;;;;;;;;;;;;;;;4978683;28;20328;-94
2023/02/03 19:29:30;;;;;;;;;;;;;;;;;;4978003;28;19914;-96
2023/02/03 19:31:56;;;;;;;;;;;;;;;;;;4977934;28;20280;-95
2023/02/03 19:34:21;;;;;;;;;;;;;;;;;;4977325;28;19910;-94
2023/02/03 19:36:47;;;;;;;;;;;;;;;;;;4977372;28;19918;-95
2023/02/03 19:39:12;;;;;;;;;;;;;;;;;;4976561;28;20001;-90
2023/02/03 19:41:38;;;;;;;;;;;;;;;;;;4978155;28;19914;-92
2023/02/03 19:44:04;;;;;;;;;;;;;;;;;;4976426;28;19918;-90
2023/02/03 19:46:32;;;;;;;;;;;;;;;;;;4976345;28;20320;-89
2023/02/03 19:48:58;;;;;;;;;;;;;;;;;;4976704;28;19921;-93
2023/02/03 19:51:26;;;;;;;;;;;;;;;;;;4976565;28;20280;-91
2023/02/03 19:53:52;;;;;;;;;;;;;;;;;;4976890;28;20041;-91
2023/02/03 19:56:17;;;;;;;;;;;;;;;;;;4976565;28;19957;-91
2023/02/03 19:58:44;;;;;;;;;;;;;;;;;;4976378;28;19942;-92
2023/02/03 20:01:10;;;;;;;;;;;;;;;;;;4976028;28;19914;-91
2023/02/03 20:03:35;;;;;;;;;;;;;;;;;;4976520;28;19914;-92
2023/02/03 20:06:00;;;;;;;;;;;;;;;;;;4976360;28;19910;-92
2023/02/03 20:08:26;;;;;;;;;;;;;;;;;;4976127;28;20275;-93
2023/02/03 20:10:51;;;;;;;;;;;;;;;;;;4976342;28;19914;-92
2023/02/03 20:13:17;;;;;;;;;;;;;;;;;;4976206;28;20395;-93
2023/02/03 20:15:45;;;;;;;;;;;;;;;;;;4976112;28;19930;-93
2023/02/03 20:18:10;;;;;;;;;;;;;;;;;;4976227;28;19910;-91
2023/02/03 20:20:36;;;;;;;;;;;;;;;;;;4975926;28;19921;-92
2023/02/03 20:23:01;;;;;;;;;;;;;;;;;;4975848;28;20278;-93
2023/02/03 20:25:26;;;;;;;;;;;;;;;;;;4975716;28;19917;-93
2023/02/03 20:27:52;;;;;;;;;;;;;;;;;;4975788;28;20387;-93
2023/02/03 20:30:17;;;;;;;;;;;;;;;;;;4975824;28;19953;-92
2023/02/03 20:32:43;;;;;;;;;;;;;;;;;;4975792;28;19921;-90
2023/02/03 20:35:08;;;;;;;;;;;;;;;;;;4975598;28;19997;-90
2023/02/03 20:37:37;;;;;;;;;;;;;;;;;;4975645;28;20364;-91
2023/02/03 20:40:05;;;;;;;;;;;;;;;;;;4975680;28;19914;-92
2023/02/03 20:42:30;;;;;;;;;;;;;;;;;;4975820;28;19917;-91
2023/02/03 20:44:55;;;;;;;;;;;;;;;;;;4976114;28;19969;-92
2023/02/03 20:47:21;;;;;;;;;;;;;;;;;;4976478;28;19918;-92
2023/02/03 20:49:48;;;;;;;;;;;;;;;;;;4975333;28;19914;-92
2023/02/03 20:52:14;;;;;;;;;;;;;;;;;;4975375;28;19914;-92
2023/02/03 20:54:40;;;;;;;;;;;;;;;;;;4976999;28;19914;-92
2023/02/03 20:57:12;;;;;;;;;;;;;;;;;;4976142;28;20383;-92
2023/02/03 20:59:38;;;;;;;;;;;;;;;;;;4975019;28;19914;-92
2023/02/03 21:02:16;;;;;;;;;;;;;;;;;;4975215;28;19937;-92
2023/02/03 21:04:56;;;;;;;;;;;;;;;;;;4974794;28;19914;-92
2023/02/03 21:07:22;;;;;;;;;;;;;;;;;;4974845;28;19960;-92
2023/02/03 21:09:48;;;;;;;;;;;;;;;;;;4974961;28;20012;-91
2023/02/03 21:12:16;;;;;;;;;;;;;;;;;;4974226;28;20575;-92
2023/02/03 21:14:42;;;;;;;;;;;;;;;;;;4974918;28;20387;-91
2023/02/03 21:17:15;;;;;;;;;;;;;;;;;;4974401;28;19918;-91
2023/02/03 21:19:41;;;;;;;;;;;;;;;;;;4974467;28;19974;-90
2023/02/03 21:22:13;;;;;;;;;;;;;;;;;;4975320;28;19922;-91
2023/02/03 21:24:41;;;;;;;;;;;;;;;;;;4976623;28;19922;-90
2023/02/03 21:27:19;;;;;;;;;;;;;;;;;;4974809;28;19945;-91
2023/02/03 21:29:44;;;;;;;;;;;;;;;;;;4974328;28;19926;-91
2023/02/03 21:32:13;;;;;;;;;;;;;;;;;;4974327;28;19918;-91
2023/02/03 21:34:40;;;;;;;;;;;;;;;;;;4974022;28;19925;-90
2023/02/03 21:37:10;;;;;;;;;;;;;;;;;;4974293;28;19930;-91
2023/02/03 21:39:36;;;;;;;;;;;;;;;;;;4974301;28;20036;-90
2023/02/03 21:42:39;;;;;;;;;;;;;;;;;;4974053;28;20404;-90
2023/02/03 21:45:27;;;;;;;;;;;;;;;;;;4974363;28;19918;-91
2023/02/03 21:47:52;;;;;;;;;;;;;;;;;;4973817;28;20009;-91
2023/02/03 21:50:34;;;;;;;;;;;;;;;;;;4975626;28;19953;-90
2023/02/03 21:53:11;;;;;;;;;;;;;;;;;;4974098;28;19925;-91
2023/02/03 21:55:37;;;;;;;;;;;;;;;;;;4974438;28;19922;-91
2023/02/03 21:58:15;;;;;;;;;;;;;;;;;;4974225;28;19918;-91
2023/02/03 22:00:46;;;;;;;;;;;;;;;;;;4975283;28;19925;-90
2023/02/03 22:03:23;;;;;;;;;;;;;;;;;;4977604;28;19925;-91
2023/02/03 22:05:49;;;;;;;;;;;;;;;;;;4977721;28;20297;-90
2023/02/03 22:08:16;;;;;;;;;;;;;;;;;;4977657;28;19925;-91
2023/02/03 22:10:41;;;;;;;;;;;;;;;;;;4977718;28;20004;-90
2023/02/03 22:13:07;;;;;;;;;;;;;;;;;;4977755;28;19957;-91
2023/02/03 22:15:32;;;;;;;;;;;;;;;;;;4977761;28;20285;-91
2023/02/03 22:17:57;;;;;;;;;;;;;;;;;;4978675;28;19918;-89
2023/02/03 22:20:22;;;;;;;;;;;;;;;;;;4978462;28;19914;-90
2023/02/03 22:22:48;;;;;;;;;;;;;;;;;;4977475;28;19918;-90
2023/02/03 22:25:13;;;;;;;;;;;;;;;;;;4977347;28;20272;-89
2023/02/03 22:27:38;;;;;;;;;;;;;;;;;;4977252;28;20013;-90
2023/02/03 22:30:04;;;;;;;;;;;;;;;;;;4978586;28;19980;-92
2023/02/03 22:32:29;;;;;;;;;;;;;;;;;;4977553;28;19918;-92
2023/02/03 22:34:54;;;;;;;;;;;;;;;;;;4978353;28;19928;-91
2023/02/03 22:37:20;;;;;;;;;;;;;;;;;;4978562;28;19918;-90
2023/02/03 22:39:45;;;;;;;;;;;;;;;;;;4977344;28;19986;-91
2023/02/03 22:42:10;;;;;;;;;;;;;;;;;;4977753;28;19918;-90
2023/02/03 22:44:36;;;;;;;;;;;;;;;;;;4978205;28;19965;-91
2023/02/03 22:47:01;;;;;;;;;;;;;;;;;;4977117;28;19918;-90
2023/02/03 22:49:26;;;;;;;;;;;;;;;;;;4976714;28;20016;-91
2023/02/03 22:51:52;;;;;;;;;;;;;;;;;;4977055;28;20008;-90
2023/02/03 22:54:17;;;;;;;;;;;;;;;;;;4977334;28;19918;-91
2023/02/03 22:56:42;;;;;;;;;;;;;;;;;;4977525;28;20403;-91
2023/02/03 22:59:08;;;;;;;;;;;;;;;;;;4978034;28;19926;-91
2023/02/03 23:01:36;;;;;;;;;;;;;;;;;;4978094;28;19918;-90
2023/02/03 23:04:01;;;;;;;;;;;;;;;;;;4978634;28;19926;-89
